Time;durP1;ratioP1;P1;durP2;ratioP2;P2;SDS_P1;SDS_P2;PMS_P1;PMS_P2;Temp;Humidity;BMP_temperature;BMP_pressure;BME280_temperature;BME280_humidity;BME280_pressure;Samples;Min_cycle;Max_cycle;Signal;HPM_P1;HPM_P2
2023/06/12 00:00:00;;;;;;;5.10;3.20;;;;;;;17.36;60.21;99644.34;108097;1306;22849;-41
2023/06/12 00:02:25;;;;;;;8.20;2.90;;;;;;;17.35;59.82;99639.99;108082;1306;22216;-41
2023/06/12 00:04:54;;;;;;;8.90;3.00;;;;;;;17.32;60.34;99638.60;108087;1306;22321;-40
2023/06/12 00:07:21;;;;;;;8.10;3.10;;;;;;;17.31;60.17;99646.15;108098;1306;22409;-41
2023/06/12 00:09:47;;;;;;;7.60;3.10;;;;;;;17.30;60.11;99644.43;108091;1306;22539;-41
2023/06/12 00:12:13;;;;;;;3.50;3.20;;;;;;;17.29;60.04;99641.86;108077;1306;23020;-40
2023/06/12 00:14:39;;;;;;;5.70;3.70;;;;;;;17.27;59.72;99644.45;108104;1306;22451;-41
2023/06/12 00:17:04;;;;;;;4.80;2.90;;;;;;;17.24;59.84;99642.04;108071;1306;22382;-41
2023/06/12 00:19:30;;;;;;;7.20;2.90;;;;;;;17.17;60.82;99640.63;108096;1306;22235;-41
2023/06/12 00:21:56;;;;;;;8.00;3.50;;;;;;;17.14;60.84;99643.04;108081;1306;22883;-42
2023/06/12 00:24:21;;;;;;;3.40;3.00;;;;;;;17.12;61.07;99640.90;108096;1306;22847;-40
2023/06/12 00:26:47;;;;;;;11.30;3.20;;;;;;;17.10;61.44;99638.34;108093;1306;22470;-41
2023/06/12 00:29:12;;;;;;;8.50;3.60;;;;;;;17.07;61.87;99637.00;108078;1306;23121;-40
2023/06/12 00:31:38;;;;;;;7.00;3.00;;;;;;;17.05;61.71;99634.17;108071;1306;22383;-41
2023/06/12 00:34:03;;;;;;;3.00;2.60;;;;;;;17.02;61.63;99635.44;108088;1306;22238;-41
2023/06/12 00:36:28;;;;;;;5.00;3.30;;;;;;;16.99;61.88;99633.33;108099;1306;23040;-41
2023/06/12 00:38:55;;;;;;;9.60;3.20;;;;;;;17.00;61.68;99632.80;108089;1306;22227;-41
2023/06/12 00:41:20;;;;;;;6.10;3.10;;;;;;;16.98;61.71;99629.69;108068;1306;23372;-41
2023/06/12 00:43:46;;;;;;;4.80;3.40;;;;;;;16.95;62.20;99631.73;108085;1306;22433;-41
2023/06/12 00:46:11;;;;;;;4.40;3.50;;;;;;;16.92;62.23;99629.69;108080;1306;22437;-41
2023/06/12 00:48:39;;;;;;;6.60;3.40;;;;;;;16.89;61.95;99629.33;108095;1306;22399;-41
2023/06/12 00:51:04;;;;;;;;;;;;;;;16.86;62.26;99631.48;108100;1306;22442;-41
2023/06/12 00:53:29;;;;;;;5.00;3.00;;;;;;;16.84;62.60;99630.94;108082;1306;22384;-41
2023/06/12 00:55:55;;;;;;;7.60;3.40;;;;;;;16.80;62.41;99627.31;108053;1306;23057;-41
2023/06/12 00:58:21;;;;;;;4.80;3.00;;;;;;;16.77;62.58;99627.73;108078;1306;22297;-41
2023/06/12 01:00:48;;;;;;;10.20;3.60;;;;;;;16.75;62.50;99628.23;108086;1306;22395;-41
2023/06/12 01:03:13;;;;;;;5.70;3.80;;;;;;;16.72;62.79;99629.31;108094;1306;22241;-40
2023/06/12 01:05:42;;;;;;;8.30;3.50;;;;;;;16.71;63.08;99628.91;108107;1306;22082;-42
2023/06/12 01:08:44;;;;;;;4.40;3.00;;;;;;;16.69;62.99;99628.67;108093;1306;22906;-41
2023/06/12 01:11:11;;;;;;;10.60;3.30;;;;;;;16.66;63.11;99629.23;108070;1306;22211;-41
2023/06/12 01:13:37;;;;;;;;;;;;;;;16.65;63.24;99624.77;108093;1306;22481;-41
2023/06/12 01:16:03;;;;;;;5.50;3.30;;;;;;;16.62;63.59;99627.26;108088;1306;22223;-41
2023/06/12 01:18:29;;;;;;;6.00;3.20;;;;;;;16.62;63.15;99628.88;108089;1306;22224;-41
2023/06/12 01:20:57;;;;;;;3.80;2.70;;;;;;;16.60;63.17;99625.27;108099;1306;22862;-42
2023/06/12 01:23:43;;;;;;;5.20;3.10;;;;;;;16.60;63.04;99626.73;108087;1306;22193;-41
2023/06/12 01:26:27;;;;;;;4.20;3.10;;;;;;;16.59;62.61;99627.67;108084;1306;23051;-42
2023/06/12 01:29:20;;;;;;;4.70;2.90;;;;;;;16.55;63.48;99623.16;108111;1306;22851;-41
2023/06/12 01:32:07;;;;;;;5.00;3.00;;;;;;;16.51;63.83;99620.45;108066;1306;23247;-41
2023/06/12 01:34:54;;;;;;;5.20;3.50;;;;;;;16.50;63.33;99618.20;108090;1306;22225;-42
2023/06/12 01:37:44;;;;;;;10.80;3.60;;;;;;;16.45;63.84;99621.27;108086;1306;22264;-41
2023/06/12 01:40:12;;;;;;;9.90;3.30;;;;;;;16.39;64.55;99624.89;108100;1306;23239;-41
2023/06/12 01:42:38;;;;;;;6.10;3.50;;;;;;;16.36;64.62;99627.27;108082;1306;22243;-41
2023/06/12 01:45:04;;;;;;;3.70;3.40;;;;;;;16.32;64.70;99626.67;108092;1306;22246;-41
2023/06/12 01:47:29;;;;;;;5.20;3.30;;;;;;;16.28;64.82;99628.70;108082;1306;22460;-41
2023/06/12 01:49:54;;;;;;;7.10;3.20;;;;;;;16.27;64.89;99628.23;108092;1306;22214;-41
2023/06/12 01:52:20;;;;;;;3.60;3.10;;;;;;;16.26;64.86;99630.63;108088;1306;22263;-41
2023/06/12 01:54:48;;;;;;;4.60;3.10;;;;;;;16.25;64.60;99630.04;108058;1306;22292;-41
2023/06/12 01:57:14;;;;;;;4.10;3.00;;;;;;;16.21;65.25;99629.59;108085;1306;22227;-41
2023/06/12 01:59:39;;;;;;;6.70;3.70;;;;;;;16.21;65.13;99630.10;108083;1306;22226;-41
2023/06/12 02:02:05;;;;;;;3.60;3.00;;;;;;;16.21;64.96;99626.41;108065;1306;22432;-41
2023/06/12 02:04:30;;;;;;;10.70;3.70;;;;;;;16.18;65.16;99629.06;108067;1306;22387;-41
2023/06/12 02:06:56;;;;;;;5.50;3.20;;;;;;;16.16;65.23;99623.63;108085;1306;22311;-42
2023/06/12 02:09:21;;;;;;;4.10;3.00;;;;;;;16.16;65.07;99623.75;108098;1306;22217;-41
2023/06/12 02:11:48;;;;;;;5.40;2.80;;;;;;;16.17;65.00;99623.04;108072;1306;22953;-40
2023/06/12 02:14:13;;;;;;;9.50;3.60;;;;;;;16.16;65.19;99624.52;108075;1306;22523;-40
2023/06/12 02:16:39;;;;;;;9.00;3.50;;;;;;;16.16;64.69;99630.52;108066;1306;22399;-41
2023/06/12 02:19:04;;;;;;;4.60;3.50;;;;;;;16.14;64.34;99627.98;108071;1306;22391;-41
2023/06/12 02:21:30;;;;;;;16.70;3.80;;;;;;;16.13;64.84;99635.80;108057;1306;22222;-41
2023/06/12 02:23:55;;;;;;;8.40;3.30;;;;;;;16.14;64.72;99633.15;108070;1306;22377;-41
2023/06/12 02:26:20;;;;;;;8.60;3.90;;;;;;;16.12;64.74;99636.78;108073;1306;22401;-41
2023/06/12 02:28:47;;;;;;;5.70;3.60;;;;;;;16.07;64.79;99641.58;107877;1306;22562;-41
2023/06/12 02:31:12;;;;;;;6.60;3.80;;;;;;;16.04;64.89;99646.19;108077;1306;22465;-41
2023/06/12 02:33:38;;;;;;;9.90;3.80;;;;;;;16.04;64.37;99646.16;108023;1306;22242;-40
2023/06/12 02:36:05;;;;;;;11.40;3.50;;;;;;;16.01;64.90;99641.82;108049;1306;22218;-42
2023/06/12 02:38:31;;;;;;;8.90;3.70;;;;;;;15.99;65.11;99644.59;108031;1306;22284;-41
2023/06/12 02:43:58;;;;;;;6.50;3.60;;;;;;;16.05;64.03;99645.39;107624;1298;558907;-41
2023/06/12 02:46:23;;;;;;;8.90;3.30;;;;;;;15.98;64.71;99647.38;107844;1307;22342;-42
2023/06/12 02:48:48;;;;;;;7.00;3.40;;;;;;;15.94;64.94;99647.13;107843;1307;22480;-42
2023/06/12 02:51:13;;;;;;;5.90;3.70;;;;;;;15.91;64.91;99648.75;107856;1307;22427;-40
2023/06/12 02:53:39;;;;;;;8.80;3.60;;;;;;;15.87;64.93;99650.05;107860;1307;22476;-41
2023/06/12 02:56:04;;;;;;;17.40;4.40;;;;;;;15.78;65.46;99652.52;107846;1307;22244;-41
2023/06/12 02:58:29;;;;;;;6.80;3.80;;;;;;;15.73;65.16;99654.40;107833;1305;22338;-41
2023/06/12 03:00:56;;;;;;;7.00;4.00;;;;;;;15.68;65.31;99652.64;108058;1305;22488;-42
2023/06/12 03:03:21;;;;;;;6.20;3.80;;;;;;;15.64;65.27;99652.71;108093;1305;22470;-41
2023/06/12 03:05:47;;;;;;;6.40;4.00;;;;;;;15.56;66.28;99650.46;108050;1305;22306;-41
2023/06/12 03:08:16;;;;;;;8.90;4.10;;;;;;;15.56;65.53;99652.95;108074;1305;22426;-41
2023/06/12 03:10:41;;;;;;;5.30;4.10;;;;;;;15.51;66.41;99651.34;108061;1305;22311;-41
2023/06/12 03:13:07;;;;;;;9.30;4.30;;;;;;;15.52;66.07;99652.52;108083;1305;22800;-41
2023/06/12 03:15:33;;;;;;;10.00;4.20;;;;;;;15.52;65.98;99653.98;108062;1305;22391;-41
2023/06/12 03:17:59;;;;;;;8.10;3.90;;;;;;;15.49;66.40;99653.76;108058;1305;22270;-42
2023/06/12 03:20:24;;;;;;;8.30;3.90;;;;;;;15.49;66.33;99652.36;108079;1305;22240;-40
2023/06/12 03:22:50;;;;;;;12.60;4.20;;;;;;;15.50;66.26;99651.08;108067;1305;22357;-41
2023/06/12 03:25:18;;;;;;;6.60;4.30;;;;;;;15.50;66.50;99648.58;108066;1305;22312;-40
2023/06/12 03:27:47;;;;;;;8.30;4.40;;;;;;;15.50;66.73;99650.36;108071;1305;22282;-41
2023/06/12 03:30:13;;;;;;;6.90;4.00;;;;;;;15.51;66.56;99650.29;108068;1305;22441;-42
2023/06/12 03:32:38;;;;;;;10.10;4.70;;;;;;;15.50;66.64;99651.08;108061;1305;22263;-41
2023/06/12 03:35:04;;;;;;;9.00;4.30;;;;;;;15.50;66.63;99649.80;108066;1305;22265;-41
2023/06/12 03:37:29;;;;;;;6.00;4.30;;;;;;;15.51;66.76;99649.60;108054;1305;22972;-41
2023/06/12 03:39:55;;;;;;;7.70;4.00;;;;;;;15.54;66.65;99652.21;108077;1305;22273;-41
2023/06/12 03:42:21;;;;;;;8.00;3.90;;;;;;;15.56;66.33;99652.94;108056;1305;23330;-41
2023/06/12 03:44:46;;;;;;;8.50;4.50;;;;;;;15.57;66.25;99653.02;108063;1305;22479;-40
2023/06/12 03:47:12;;;;;;;7.00;3.90;;;;;;;15.59;66.24;99653.08;108081;1305;22252;-42
2023/06/12 03:49:39;;;;;;;6.50;4.20;;;;;;;15.61;65.86;99655.41;108088;1305;22210;-41
2023/06/12 03:52:05;;;;;;;6.10;4.00;;;;;;;15.61;65.81;99657.88;108064;1305;22892;-40
2023/06/12 03:54:31;;;;;;;8.30;4.00;;;;;;;15.62;65.56;99662.94;108061;1305;22231;-42
2023/06/12 03:56:56;;;;;;;8.10;4.80;;;;;;;15.63;65.77;99662.02;108070;1305;22437;-41
2023/06/12 03:59:21;;;;;;;4.90;3.70;;;;;;;15.64;65.27;99661.05;108052;1305;22448;-40
2023/06/12 04:01:48;;;;;;;10.00;4.20;;;;;;;15.62;65.48;99664.39;108060;1305;23037;-41
2023/06/12 04:04:14;;;;;;;10.70;4.30;;;;;;;15.66;65.49;99664.61;108077;1305;22400;-41
2023/06/12 04:06:40;;;;;;;10.00;4.00;;;;;;;15.67;65.20;99665.78;108064;1305;22420;-41
2023/06/12 04:09:10;;;;;;;8.20;4.20;;;;;;;15.68;65.10;99664.46;108071;1305;22189;-40
2023/06/12 04:11:35;;;;;;;6.70;3.80;;;;;;;15.70;65.05;99663.45;108081;1305;23130;-42
2023/06/12 04:14:01;;;;;;;11.90;5.30;;;;;;;15.72;64.74;99665.92;108069;1305;22329;-42
2023/06/12 04:16:27;;;;;;;7.00;4.10;;;;;;;15.77;64.52;99668.84;108085;1305;23052;-40
2023/06/12 04:18:53;;;;;;;6.20;3.80;;;;;;;15.80;64.45;99664.91;108060;1305;22225;-41
2023/06/12 04:21:20;;;;;;;9.10;4.20;;;;;;;15.83;64.50;99664.34;108070;1305;22460;-41
2023/06/12 04:23:47;;;;;;;8.20;4.00;;;;;;;15.90;64.01;99667.05;108069;1305;23000;-40
2023/06/12 04:26:15;;;;;;;8.60;3.40;;;;;;;15.92;64.28;99667.72;108053;1305;23182;-40
2023/06/12 04:28:41;;;;;;;14.60;4.20;;;;;;;15.96;64.33;99665.50;108094;1304;23268;-40
2023/06/12 04:31:07;;;;;;;7.30;3.70;;;;;;;16.02;63.96;99665.48;108110;1305;22240;-41
2023/06/12 04:33:35;;;;;;;8.80;3.60;;;;;;;16.05;63.77;99667.14;108061;1305;23100;-41
2023/06/12 04:36:02;;;;;;;5.10;3.60;;;;;;;16.11;63.44;99667.44;108087;1305;23009;-40
2023/06/12 04:38:36;;;;;;;8.30;3.50;;;;;;;16.16;63.27;99668.52;108076;1305;22242;-40
2023/06/12 04:41:02;;;;;;;7.70;3.60;;;;;;;16.20;63.41;99672.13;108063;1305;22351;-39
2023/06/12 04:43:28;;;;;;;9.00;3.50;;;;;;;16.24;62.93;99676.23;107875;1305;22193;-40
2023/06/12 04:45:53;;;;;;;6.20;3.10;;;;;;;16.29;62.83;99678.34;108085;1305;22253;-41
2023/06/12 04:48:20;;;;;;;11.00;3.90;;;;;;;16.35;62.85;99678.14;108087;1305;22242;-40
2023/06/12 04:50:49;;;;;;;6.40;3.60;;;;;;;16.41;62.44;99678.39;108063;1305;22299;-42
2023/06/12 04:53:17;;;;;;;7.20;3.10;;;;;;;16.45;62.16;99676.86;108070;1305;22242;-41
2023/06/12 04:55:44;;;;;;;3.60;2.90;;;;;;;16.49;61.86;99679.54;108090;1305;22308;-41
2023/06/12 04:58:10;;;;;;;7.70;3.40;;;;;;;16.53;61.69;99677.30;108061;1305;22253;-41
2023/06/12 05:00:35;;;;;;;9.50;3.20;;;;;;;16.58;61.29;99675.73;108090;1305;23099;-42
2023/06/12 05:03:02;;;;;;;9.90;3.70;;;;;;;16.60;61.16;99676.97;108043;1305;22215;-41
2023/06/12 05:05:27;;;;;;;12.50;3.50;;;;;;;16.62;60.86;99672.73;108060;1305;22480;-42
2023/06/12 05:07:53;;;;;;;7.40;3.30;;;;;;;16.65;60.63;99674.64;108081;1305;22866;-40
2023/06/12 05:10:19;;;;;;;7.20;3.30;;;;;;;16.69;60.42;99674.37;108098;1305;22457;-40
2023/06/12 05:12:44;;;;;;;7.40;3.50;;;;;;;16.75;60.39;99673.90;108077;1305;22223;-41
2023/06/12 05:15:10;;;;;;;4.80;3.20;;;;;;;16.82;60.03;99673.02;108082;1305;23227;-40
2023/06/12 05:17:36;;;;;;;6.80;2.80;;;;;;;16.86;59.72;99675.41;108114;1305;23187;-41
2023/06/12 05:20:05;;;;;;;7.30;3.20;;;;;;;16.93;59.45;99672.44;108076;1305;23337;-40
2023/06/12 05:22:30;;;;;;;5.40;2.90;;;;;;;16.99;59.02;99669.31;108070;1305;22238;-42
2023/06/12 05:24:56;;;;;;;9.10;2.70;;;;;;;17.04;58.87;99666.81;108052;1305;23067;-42
2023/06/12 05:27:21;;;;;;;4.90;3.00;;;;;;;17.06;58.34;99666.33;107991;1306;22410;-42
2023/06/12 05:29:46;;;;;;;8.50;3.00;;;;;;;17.10;58.20;99666.36;108051;1306;22387;-41
2023/06/12 05:32:12;;;;;;;5.70;3.10;;;;;;;17.11;57.79;99664.67;108016;1306;23180;-41
2023/06/12 05:34:38;;;;;;;8.20;3.60;;;;;;;17.15;57.97;99663.99;108028;1306;22331;-40
2023/06/12 05:37:03;;;;;;;8.30;3.00;;;;;;;17.22;57.92;99668.08;108028;1306;22972;-41
2023/06/12 05:39:29;;;;;;;7.10;3.00;;;;;;;17.29;57.80;99668.29;108002;1306;22495;-42
2023/06/12 05:41:54;;;;;;;3.10;2.60;;;;;;;17.34;57.10;99668.02;108000;1306;22220;-41
2023/06/12 05:44:19;;;;;;;6.40;3.00;;;;;;;17.38;56.71;99666.17;108037;1306;22259;-41
2023/06/12 05:46:48;;;;;;;7.50;2.80;;;;;;;17.41;56.65;99668.05;108005;1306;22224;-41
2023/06/12 05:49:13;;;;;;;4.60;2.70;;;;;;;17.45;56.58;99665.63;108013;1306;22943;-41
2023/06/12 05:51:38;;;;;;;8.70;3.50;;;;;;;17.50;56.51;99662.73;108001;1306;22864;-41
2023/06/12 05:54:04;;;;;;;7.80;2.70;;;;;;;17.54;56.11;99667.77;107996;1306;22475;-41
2023/06/12 05:56:29;;;;;;;9.50;2.90;;;;;;;17.58;56.02;99666.70;108024;1306;22299;-42
2023/06/12 05:58:54;;;;;;;5.60;2.80;;;;;;;17.65;55.60;99673.30;108007;1306;23757;-41
2023/06/12 06:01:22;;;;;;;11.10;2.70;;;;;;;17.70;54.90;99675.37;107996;1300;22403;-41
2023/06/12 06:03:48;;;;;;;5.60;2.20;;;;;;;17.76;52.26;99676.45;107998;1304;22362;-41
2023/06/12 06:06:15;;;;;;;3.80;2.20;;;;;;;17.81;50.08;99676.81;108011;1306;22962;-41
2023/06/12 06:08:41;;;;;;;5.50;2.40;;;;;;;17.87;49.80;99676.36;107994;1298;22441;-41
2023/06/12 06:11:07;;;;;;;11.80;2.50;;;;;;;17.92;48.58;99679.54;108016;1298;23004;-42
2023/06/12 06:13:33;;;;;;;6.90;2.50;;;;;;;17.96;47.49;99683.27;108012;1306;22506;-42
2023/06/12 06:15:58;;;;;;;7.20;2.50;;;;;;;18.03;47.43;99681.67;107976;1306;22260;-41
2023/06/12 06:18:24;;;;;;;8.90;2.00;;;;;;;18.09;46.38;99680.81;107997;1306;22375;-42
2023/06/12 06:20:49;;;;;;;6.70;2.10;;;;;;;18.13;45.10;99684.37;108011;1291;22291;-41
2023/06/12 06:23:15;;;;;;;5.90;2.20;;;;;;;18.20;45.82;99683.63;108021;1306;22499;-43
2023/06/12 06:25:40;;;;;;;5.10;2.00;;;;;;;18.26;44.86;99687.10;108001;1291;23141;-41
2023/06/12 06:28:06;;;;;;;13.90;1.80;;;;;;;18.31;43.96;99683.98;107992;1291;22228;-41
2023/06/12 06:30:31;;;;;;;9.60;2.40;;;;;;;18.36;42.43;99685.05;107978;1291;23205;-42
2023/06/12 06:32:56;;;;;;;4.40;1.70;;;;;;;18.41;43.36;99690.62;108016;1291;22439;-41
2023/06/12 06:35:23;;;;;;;3.30;1.70;;;;;;;18.46;42.65;99688.88;108020;1299;22416;-42
2023/06/12 06:37:48;;;;;;;8.40;1.70;;;;;;;18.51;40.74;99683.64;108008;1302;22457;-41
2023/06/12 06:40:14;;;;;;;8.80;2.00;;;;;;;18.57;40.17;99687.40;108001;1291;23118;-42
2023/06/12 06:42:41;;;;;;;10.90;2.10;;;;;;;18.61;39.28;99689.05;108024;1306;22452;-42
2023/06/12 06:45:07;;;;;;;4.30;1.90;;;;;;;18.66;39.60;99687.01;108013;1291;22269;-41
2023/06/12 06:47:33;;;;;;;8.00;1.60;;;;;;;18.71;40.00;99689.60;107958;1291;22789;-42
2023/06/12 06:49:59;;;;;;;6.80;1.50;;;;;;;18.76;38.69;99692.22;108012;1306;22252;-41
2023/06/12 06:52:24;;;;;;;6.10;2.00;;;;;;;18.83;38.08;99693.80;108009;1291;22921;-41
2023/06/12 06:54:50;;;;;;;5.80;1.50;;;;;;;18.90;37.68;99695.15;108013;1291;22753;-40
2023/06/12 06:57:15;;;;;;;6.70;1.60;;;;;;;18.96;37.77;99695.33;108008;1291;23278;-41
2023/06/12 06:59:41;;;;;;;5.50;1.30;;;;;;;19.02;37.31;99696.16;108033;1287;22436;-40
2023/06/12 07:02:06;;;;;;;9.40;1.60;;;;;;;19.03;36.19;99691.94;108014;1298;22217;-41
2023/06/12 07:04:31;;;;;;;5.00;1.30;;;;;;;19.07;35.44;99695.02;107986;1306;23021;-41
2023/06/12 07:06:56;;;;;;;7.60;1.10;;;;;;;19.12;36.48;99691.35;107983;1290;22267;-42
2023/06/12 07:09:24;;;;;;;7.10;1.30;;;;;;;19.16;35.45;99689.20;108003;1298;24390;-41
2023/06/12 07:11:50;;;;;;;5.40;1.40;;;;;;;19.22;36.00;99688.39;108039;1287;22273;-41
2023/06/12 07:14:15;;;;;;;7.40;2.30;;;;;;;19.28;35.71;99685.06;108003;1291;22236;-41
2023/06/12 07:16:41;;;;;;;7.60;2.00;;;;;;;19.34;35.72;99684.89;108018;1290;22264;-41
2023/06/12 07:19:06;;;;;;;8.70;1.30;;;;;;;19.37;36.01;99686.57;108032;1298;22331;-41
2023/06/12 07:21:31;;;;;;;10.90;2.40;;;;;;;19.43;36.04;99685.21;108001;1306;22561;-41
2023/06/12 07:23:56;;;;;;;5.20;1.50;;;;;;;19.46;35.99;99682.08;108007;1290;22422;-41
2023/06/12 07:26:23;;;;;;;3.00;1.20;;;;;;;19.52;35.30;99683.84;108010;1298;22438;-41
2023/06/12 07:28:48;;;;;;;16.40;2.20;;;;;;;19.57;35.14;99687.59;107796;1294;23050;-41
2023/06/12 07:31:13;;;;;;;4.80;1.30;;;;;;;19.62;34.86;99685.91;107966;1298;22271;-41
2023/06/12 07:33:39;;;;;;;1.60;1.30;;;;;;;19.69;34.54;99682.58;108006;1291;23022;-41
2023/06/12 07:36:04;;;;;;;11.40;2.20;;;;;;;19.75;34.45;99685.64;108016;1294;22477;-42
2023/06/12 07:38:30;;;;;;;5.10;1.60;;;;;;;19.81;34.44;99683.89;107997;1304;22375;-42
2023/06/12 07:40:55;;;;;;;5.90;1.40;;;;;;;19.87;34.10;99684.56;108003;1306;23276;-42
2023/06/12 07:43:20;;;;;;;4.60;1.60;;;;;;;19.92;34.35;99686.27;108018;1294;23137;-41
2023/06/12 07:45:46;;;;;;;2.90;1.40;;;;;;;19.96;33.60;99677.98;108004;1291;22366;-41
2023/06/12 07:48:11;;;;;;;3.80;1.70;;;;;;;20.00;34.01;99678.89;108013;1306;23061;-41
2023/06/12 07:50:39;;;;;;;4.30;1.30;;;;;;;20.06;34.09;99677.27;108017;1298;22336;-41
2023/06/12 07:53:05;;;;;;;9.90;1.70;;;;;;;20.13;34.10;99675.03;107998;1290;23163;-41
2023/06/12 07:55:31;;;;;;;12.10;1.70;;;;;;;20.20;33.31;99673.48;107995;1306;23611;-42
2023/06/12 07:57:57;;;;;;;3.10;1.30;;;;;;;20.28;33.41;99680.80;108009;1298;22339;-41
2023/06/12 08:00:22;;;;;;;3.80;1.20;;;;;;;20.37;32.28;99678.81;108020;1291;22374;-41
2023/06/12 08:03:00;;;;;;;5.00;1.50;;;;;;;20.42;32.38;99676.76;107992;1299;22261;-42
2023/06/12 08:05:26;;;;;;;6.80;1.70;;;;;;;20.41;31.80;99675.54;107986;1294;22212;-39
2023/06/12 08:07:52;;;;;;;1.90;1.20;;;;;;;20.47;31.23;99670.70;108006;1291;22495;-41
2023/06/12 08:10:17;;;;;;;6.10;1.60;;;;;;;20.58;31.83;99672.20;108020;1291;22495;-40
2023/06/12 08:12:42;;;;;;;7.20;1.70;;;;;;;20.65;30.82;99669.00;108004;1304;22229;-41
2023/06/12 08:15:09;;;;;;;11.50;1.30;;;;;;;20.72;31.31;99664.92;108007;1300;22369;-40
2023/06/12 08:17:41;;;;;;;2.60;1.50;;;;;;;20.81;30.34;99664.64;108018;1306;22461;-41
2023/06/12 08:20:09;;;;;;;4.40;1.20;;;;;;;20.92;30.79;99655.63;108030;1294;23002;-41
2023/06/12 08:22:34;;;;;;;6.20;1.30;;;;;;;21.01;30.21;99660.05;108037;1291;22528;-41
2023/06/12 08:25:03;;;;;;;3.10;1.30;;;;;;;21.13;30.81;99655.98;108031;1294;22388;-42
2023/06/12 08:27:29;;;;;;;8.20;1.50;;;;;;;21.19;29.79;99655.45;108032;1291;22182;-41
2023/06/12 08:29:54;;;;;;;4.40;1.60;;;;;;;21.23;29.66;99655.71;108025;1306;23062;-41
2023/06/12 08:32:20;;;;;;;3.20;1.40;;;;;;;21.32;29.59;99646.37;108041;1304;22372;-40
2023/06/12 08:34:45;;;;;;;4.20;1.30;;;;;;;21.53;30.38;99647.65;108004;1294;22818;-41
2023/06/12 08:37:11;;;;;;;6.70;1.90;;;;;;;21.66;29.38;99647.58;108004;1291;23171;-42
2023/06/12 08:39:36;;;;;;;3.30;1.50;;;;;;;21.84;28.49;99653.21;107954;1294;22408;-46
2023/06/12 08:42:08;;;;;;;2.60;1.30;;;;;;;22.02;28.41;99657.58;108007;1306;22270;-41
2023/06/12 08:44:34;;;;;;;8.30;1.30;;;;;;;22.06;26.91;99651.39;107759;1298;22270;-42
2023/06/12 08:47:02;;;;;;;5.30;1.30;;;;;;;22.15;27.49;99655.33;108023;1291;22306;-42
2023/06/12 08:49:28;;;;;;;;;;;;;;;22.24;27.45;99654.86;108044;1300;23118;-41
2023/06/12 08:51:53;;;;;;;5.90;1.20;;;;;;;22.41;28.04;99658.06;108012;1298;22261;-42
2023/06/12 08:54:19;;;;;;;3.40;1.70;;;;;;;22.58;26.94;99652.77;108005;1305;22440;-42
2023/06/12 08:56:45;;;;;;;4.10;1.40;;;;;;;22.70;25.88;99651.77;108012;1306;23009;-41
2023/06/12 08:59:11;;;;;;;4.40;1.40;;;;;;;22.93;26.35;99656.56;108017;1298;23432;-44
2023/06/12 09:01:39;;;;;;;7.70;1.40;;;;;;;23.11;25.81;99647.77;108027;1291;22491;-42
2023/06/12 09:04:28;;;;;;;5.60;1.30;;;;;;;23.25;25.63;99644.44;108032;1299;23129;-41
2023/06/12 09:07:03;;;;;;;3.10;1.20;;;;;;;23.42;25.36;99643.03;107675;1291;22483;-43
2023/06/12 09:09:39;;;;;;;4.40;1.30;;;;;;;23.68;26.09;99645.68;108074;1297;22501;-42
2023/06/12 09:12:08;;;;;;;4.50;1.60;;;;;;;23.94;25.75;99647.69;108067;1304;22265;-42
2023/06/12 09:14:35;;;;;;;3.50;1.40;;;;;;;24.15;25.43;99653.31;108019;1298;22405;-42
2023/06/12 09:17:04;;;;;;;7.10;1.30;;;;;;;24.33;25.12;99649.45;108077;1294;22254;-43
2023/06/12 09:19:37;;;;;;;1.90;1.40;;;;;;;24.53;24.75;99648.61;108025;1298;22498;-42
2023/06/12 09:22:03;;;;;;;4.50;1.60;;;;;;;24.71;24.12;99640.20;108081;1304;22241;-42
2023/06/12 09:24:29;;;;;;;7.60;1.50;;;;;;;24.95;23.89;99637.36;108035;1291;23175;-40
2023/06/12 09:26:58;;;;;;;4.30;1.40;;;;;;;25.23;22.85;99642.14;108067;1291;23292;-41
2023/06/12 09:29:33;;;;;;;3.50;1.20;;;;;;;25.60;22.81;99642.48;108052;1305;22492;-41
2023/06/12 09:32:02;;;;;;;5.70;1.40;;;;;;;26.00;22.93;99648.48;108034;1303;22261;-41
2023/06/12 09:34:31;;;;;;;3.70;1.30;;;;;;;26.37;21.69;99647.47;108076;1298;22280;-41
2023/06/12 09:36:58;;;;;;;4.70;1.30;;;;;;;26.85;21.68;99636.27;108024;1292;22884;-42
2023/06/12 09:39:27;;;;;;;2.80;1.40;;;;;;;27.27;21.04;99631.98;108103;1304;22493;-42
2023/06/12 09:41:54;;;;;;;4.00;1.50;;;;;;;27.82;20.70;99641.61;108076;1303;22276;-42
2023/06/12 09:44:28;;;;;;;3.50;1.40;;;;;;;28.39;20.05;99641.05;108073;1283;23569;-42
2023/06/12 09:46:58;;;;;;;3.30;1.20;;;;;;;28.89;19.07;99634.83;108105;1304;22374;-43
2023/06/12 09:49:23;;;;;;;4.60;1.40;;;;;;;29.32;18.82;99640.27;108028;1305;22402;-43
2023/06/12 09:51:51;;;;;;;5.60;1.50;;;;;;;29.74;19.81;99632.19;108014;1291;23221;-43
2023/06/12 09:54:18;;;;;;;7.60;1.30;;;;;;;29.84;18.62;99627.20;108055;1294;22259;-41
2023/06/12 09:56:45;;;;;;;7.40;1.50;;;;;;;30.27;18.90;99624.43;107973;1291;22131;-41
2023/06/12 09:59:18;;;;;;;3.30;1.50;;;;;;;30.55;18.52;99632.85;108016;1303;22502;-42
2023/06/12 10:01:46;;;;;;;5.30;1.40;;;;;;;30.73;17.26;99630.31;107990;1291;22246;-43
2023/06/12 10:04:14;;;;;;;8.40;1.70;;;;;;;30.91;17.43;99628.70;108044;1304;22897;-42
2023/06/12 10:06:42;;;;;;;5.40;1.70;;;;;;;31.33;17.43;99632.60;108005;1291;23169;-46
2023/06/12 10:09:09;;;;;;;4.40;1.50;;;;;;;31.47;16.66;99632.45;108038;1298;22386;-43
2023/06/12 10:11:37;;;;;;;4.50;1.60;;;;;;;31.38;16.14;99629.71;108034;1304;22205;-42
2023/06/12 10:14:02;;;;;;;4.00;1.40;;;;;;;31.31;16.09;99628.02;108044;1298;22291;-42
2023/06/12 10:16:30;;;;;;;4.10;1.30;;;;;;;31.60;16.04;99620.38;108011;1306;22395;-42
2023/06/12 10:18:56;;;;;;;5.60;1.40;;;;;;;31.71;16.29;99625.00;108066;1300;22244;-42
2023/06/12 10:21:22;;;;;;;2.50;1.20;;;;;;;32.14;16.22;99628.05;108006;1304;22279;-42
2023/06/12 10:23:50;;;;;;;7.10;1.20;;;;;;;32.34;15.63;99622.16;107998;1304;22252;-42
2023/06/12 10:26:16;;;;;;;5.10;1.50;;;;;;;32.52;15.61;99617.39;108011;1300;22431;-43
2023/06/12 10:28:42;;;;;;;5.80;1.70;;;;;;;32.63;15.30;99622.06;107982;1291;22089;-42
2023/06/12 10:31:10;;;;;;;3.40;1.50;;;;;;;32.75;15.43;99620.52;108018;1294;22433;-43
2023/06/12 10:33:37;;;;;;;5.90;1.30;;;;;;;32.99;15.72;99614.23;107983;1298;22253;-41
2023/06/12 10:36:11;;;;;;;;;;;;;;;33.01;15.57;99609.37;108062;1300;22461;-42
2023/06/12 10:38:44;;;;;;;7.20;1.30;;;;;;;32.81;15.45;99611.16;107982;1300;22435;-42
2023/06/12 10:41:09;;;;;;;3.60;1.30;;;;;;;32.93;15.77;99605.98;108013;1291;22342;-43
2023/06/12 10:43:35;;;;;;;4.90;1.60;;;;;;;33.39;15.41;99600.19;108020;1302;22866;-41
2023/06/12 10:46:00;;;;;;;6.00;1.60;;;;;;;33.41;14.85;99601.89;108007;1306;22228;-41
2023/06/12 10:48:26;;;;;;;4.60;1.40;;;;;;;33.59;15.30;99605.71;108011;1304;22325;-41
2023/06/12 10:50:53;;;;;;;6.10;1.60;;;;;;;33.95;15.16;99606.59;107994;1301;23015;-42
2023/06/12 10:53:25;;;;;;;2.30;1.50;;;;;;;33.61;14.64;99603.36;108041;1298;22270;-42
2023/06/12 10:56:20;;;;;;;9.20;1.60;;;;;;;33.22;14.97;99602.33;108005;1294;22267;-41
2023/06/12 10:58:45;;;;;;;7.20;1.60;;;;;;;32.19;15.66;99597.17;107998;1302;22257;-41
2023/06/12 11:01:14;;;;;;;7.90;1.70;;;;;;;32.26;16.01;99591.83;108017;1294;22365;-41
2023/06/12 11:03:44;;;;;;;10.70;1.80;;;;;;;32.63;16.28;99597.89;108057;1291;22364;-41
2023/06/12 11:06:13;;;;;;;4.00;1.40;;;;;;;32.96;15.88;99588.74;108065;1285;22257;-42
2023/06/12 11:08:42;;;;;;;7.60;1.70;;;;;;;32.94;15.37;99587.95;107979;1305;22486;-42
2023/06/12 11:11:11;;;;;;;9.00;1.60;;;;;;;32.83;15.91;99593.59;108064;1300;22508;-41
2023/06/12 11:13:40;;;;;;;4.60;1.60;;;;;;;32.95;15.95;99592.52;108043;1291;22350;-40
2023/06/12 11:16:06;;;;;;;4.70;1.70;;;;;;;33.32;15.51;99588.27;108005;1306;22287;-40
2023/06/12 11:18:31;;;;;;;4.80;1.70;;;;;;;33.85;15.38;99588.62;108016;1298;22256;-40
2023/06/12 11:20:57;;;;;;;3.50;1.60;;;;;;;34.14;14.89;99587.23;108007;1306;22299;-41
2023/06/12 11:23:28;;;;;;;3.10;1.70;;;;;;;33.88;14.75;99585.37;108076;1295;22434;-41
2023/06/12 11:25:55;;;;;;;8.00;1.60;;;;;;;33.95;14.82;99583.11;108021;1304;23088;-41